Time;durP1;ratioP1;P1;durP2;ratioP2;P2;SDS_P1;SDS_P2;PMS_P1;PMS_P2;Temp;Humidity;BMP_temperature;BMP_pressure;BME280_temperature;BME280_humidity;BME280_pressure;Samples;Min_cycle;Max_cycle;Signal;HPM_P1;HPM_P2
2021/10/29 00:01:13;;;;;;;14.03;10.57;;;;;;;;;;5017691;28;20436;-90
2021/10/29 00:03:40;;;;;;;14.50;10.27;;;;;;;;;;5019226;28;20463;-90
2021/10/29 00:06:07;;;;;;;12.77;9.93;;;;;;;;;;5018025;28;20488;-90
2021/10/29 00:08:35;;;;;;;12.30;9.53;;;;;;;;;;5025363;28;20448;-90
2021/10/29 00:11:02;;;;;;;15.47;10.20;;;;;;;;;;5017519;28;20460;-89
2021/10/29 00:13:29;;;;;;;17.60;9.80;;;;;;;;;;5017559;28;20455;-91
2021/10/29 00:15:58;;;;;;;14.67;10.20;;;;;;;;;;5017549;28;20448;-90
2021/10/29 00:18:25;;;;;;;12.70;9.00;;;;;;;;;;5020007;28;20459;-90
2021/10/29 00:20:52;;;;;;;14.80;9.43;;;;;;;;;;5018011;28;20462;-89
2021/10/29 00:23:21;;;;;;;14.90;10.70;;;;;;;;;;5017452;28;20475;-93
2021/10/29 00:25:48;;;;;;;19.50;11.47;;;;;;;;;;5017135;28;20888;-91
2021/10/29 00:28:15;;;;;;;14.50;10.77;;;;;;;;;;5018509;28;20944;-89
2021/10/29 00:30:42;;;;;;;13.30;9.90;;;;;;;;;;5017605;28;20436;-95
2021/10/29 00:33:11;;;;;;;15.23;10.60;;;;;;;;;;5017479;28;20456;-91
2021/10/29 00:35:38;;;;;;;15.87;10.53;;;;;;;;;;5017388;28;20484;-90
2021/10/29 00:38:05;;;;;;;14.83;10.10;;;;;;;;;;5017193;28;20487;-89
2021/10/29 00:40:35;;;;;;;15.73;10.83;;;;;;;;;;5016608;28;20963;-90
2021/10/29 00:43:02;;;;;;;15.60;10.00;;;;;;;;;;5016989;28;20447;-90
2021/10/29 00:45:29;;;;;;;15.30;9.87;;;;;;;;;;5017290;28;21006;-93
2021/10/29 00:47:56;;;;;;;12.33;8.60;;;;;;;;;;5017222;28;20463;-91
2021/10/29 00:50:24;;;;;;;13.23;8.60;;;;;;;;;;5016717;28;20440;-89
2021/10/29 00:52:52;;;;;;;12.87;10.00;;;;;;;;;;5017271;28;20449;-93
2021/10/29 00:55:19;;;;;;;14.00;10.30;;;;;;;;;;5017050;28;20532;-91
2021/10/29 00:57:47;;;;;;;12.20;8.67;;;;;;;;;;5015492;28;20453;-91
2021/10/29 01:00:14;;;;;;;11.40;8.50;;;3.90;99.90;;;;;;5017756;28;20451;-93
2021/10/29 01:02:41;;;;;;;15.53;8.90;;;;;;;;;;5014521;28;20441;-90
2021/10/29 01:05:09;;;;;;;12.60;9.70;;;;;;;;;;5017081;28;20518;-91
2021/10/29 01:07:38;;;;;;;11.27;8.00;;;;;;;;;;5016998;28;20460;-92
2021/10/29 01:10:06;;;;;;;13.33;9.07;;;3.80;99.90;;;;;;5016567;28;20936;-91
2021/10/29 01:12:33;;;;;;;10.37;7.87;;;;;;;;;;5018609;28;20459;-93
2021/10/29 01:15:02;;;;;;;13.23;8.57;;;3.70;99.90;;;;;;5016833;28;20460;-93
2021/10/29 01:17:29;;;;;;;12.73;8.20;;;3.70;99.90;;;;;;5017295;28;20468;-91
2021/10/29 01:19:58;;;;;;;15.53;8.30;;;3.70;99.90;;;;;;5017293;28;20853;-90
2021/10/29 01:22:27;;;;;;;11.67;8.43;;;;;;;;;;5017479;28;20444;-91
2021/10/29 01:24:54;;;;;;;10.63;8.00;;;;;;;;;;5016532;28;20467;-91
2021/10/29 01:27:22;;;;;;;9.90;7.50;;;;;;;;;;5016105;28;20496;-92
2021/10/29 01:29:50;;;;;;;13.87;8.00;;;3.60;99.90;;;;;;5018073;28;20476;-91
2021/10/29 01:32:17;;;;;;;13.93;8.03;;;;;;;;;;5017515;28;20464;-90
2021/10/29 01:34:44;;;;;;;10.47;8.33;;;;;;;;;;5017091;28;20457;-93
2021/10/29 01:37:13;;;;;;;10.10;6.90;;;3.60;99.90;;;;;;5021880;28;20468;-91
2021/10/29 01:39:42;;;;;;;11.10;8.33;;;3.60;99.90;;;;;;5024305;28;20446;-89
2021/10/29 01:42:09;;;;;;;12.40;8.67;;;;;;;;;;5014457;28;20452;-92
2021/10/29 01:44:37;;;;;;;12.10;7.87;;;;;;;;;;5016150;28;20476;-89
2021/10/29 01:47:04;;;;;;;11.33;7.70;;;;;;;;;;5016004;28;20492;-90
2021/10/29 01:49:31;;;;;;;11.30;7.90;;;;;;;;;;5017505;28;20455;-89
2021/10/29 01:51:58;;;;;;;9.50;7.17;;;;;;;;;;5016068;28;20460;-91
2021/10/29 01:54:26;;;;;;;12.23;7.37;;;;;;;;;;5016295;28;20494;-93
2021/10/29 01:56:56;;;;;;;9.10;6.60;;;;;;;;;;5015345;28;20472;-90
2021/10/29 01:59:23;;;;;;;9.80;7.27;;;;;;;;;;5015926;28;20448;-89
2021/10/29 02:01:50;;;;;;;10.90;7.10;;;;;;;;;;5015168;28;20463;-93
2021/10/29 02:04:17;;;;;;;12.00;8.00;;;;;;;;;;5016545;28;20436;-93
2021/10/29 02:06:44;;;;;;;9.90;6.50;;;;;;;;;;5015856;28;20488;-91
2021/10/29 02:09:12;;;;;;;11.17;8.00;;;;;;;;;;5015826;28;20459;-90
2021/10/29 02:11:39;;;;;;;11.33;6.93;;;;;;;;;;5015015;28;20437;-93
2021/10/29 02:14:08;;;;;;;10.73;7.23;;;;;;;;;;5016029;28;20951;-91
2021/10/29 02:16:35;;;;;;;11.20;7.63;;;;;;;;;;5015350;28;20808;-92
2021/10/29 02:19:02;;;;;;;12.10;7.53;;;;;;;;;;5015273;28;20432;-90
2021/10/29 02:21:29;;;;;;;10.07;7.10;;;;;;;;;;5015847;28;20441;-91
2021/10/29 02:23:57;;;;;;;10.33;6.60;;;;;;;;;;5015867;28;20476;-91
2021/10/29 02:26:24;;;;;;;7.70;6.63;;;;;;;;;;5014761;28;20495;-90
2021/10/29 02:28:51;;;;;;;10.30;6.73;;;;;;;;;;5016715;28;20456;-91
2021/10/29 02:31:20;;;;;;;10.47;7.33;;;;;;;;;;5016395;28;20535;-88
2021/10/29 02:33:47;;;;;;;9.90;6.90;;;;;;;;;;5022868;28;20451;-89
2021/10/29 02:36:14;;;;;;;7.70;6.53;;;;;;;;;;5017431;28;20436;-91
2021/10/29 02:38:41;;;;;;;10.50;7.47;;;;;;;;;;5015714;28;20459;-91
2021/10/29 02:41:08;;;;;;;9.60;7.10;;;;;;;;;;5015061;28;20451;-91
2021/10/29 02:43:35;;;;;;;9.50;7.00;;;;;;;;;;5016246;28;20456;-90
2021/10/29 02:46:03;;;;;;;12.13;7.97;;;;;;;;;;5015415;28;20492;-91
2021/10/29 02:48:31;;;;;;;9.50;7.10;;;;;;;;;;5015095;28;20926;-89
2021/10/29 02:50:58;;;;;;;10.57;7.33;;;;;;;;;;5015112;28;20452;-89
2021/10/29 02:53:26;;;;;;;9.07;7.23;;;;;;;;;;5014977;28;20456;-91
2021/10/29 02:55:53;;;;;;;8.60;6.60;;;;;;;;;;5014199;28;20459;-93
2021/10/29 02:58:20;;;;;;;8.57;7.00;;;;;;;;;;5014494;28;20543;-89
2021/10/29 03:00:47;;;;;;;9.10;6.20;;;;;;;;;;5012711;28;20448;-90
2021/10/29 03:03:14;;;;;;;12.97;8.30;;;;;;;;;;5015801;28;20456;-91
2021/10/29 03:05:47;;;;;;;10.47;6.90;;;;;;;;;;5018377;28;20928;-91
2021/10/29 03:08:14;;;;;;;9.90;6.70;;;;;;;;;;5029992;28;20465;-90
2021/10/29 03:10:42;;;;;;;9.57;7.30;;;;;;;;;;5019429;28;20443;-90
2021/10/29 03:13:09;;;;;;;9.93;7.60;;;;;;;;;;5016622;28;20467;-90
2021/10/29 03:15:36;;;;;;;9.27;6.60;;;;;;;;;;5015735;28;20483;-91
2021/10/29 03:18:03;;;;;;;17.83;7.60;;;;;;;;;;5014624;28;20432;-90
2021/10/29 03:20:31;;;;;;;9.37;6.70;;;;;;;;;;5015445;28;20424;-93
2021/10/29 03:23:01;;;;;;;10.87;7.40;;;;;;;;;;5015458;28;21079;-91
2021/10/29 03:25:28;;;;;;;10.43;8.23;;;;;;;;;;5013614;28;20455;-90
2021/10/29 03:27:55;;;;;;;12.97;7.33;;;;;;;;;;5013882;28;20488;-91
2021/10/29 03:30:22;;;;;;;13.57;7.60;;;;;;;;;;5014523;28;20483;-91
2021/10/29 03:32:49;;;;;;;10.07;8.33;;;;;;;;;;5013803;28;20447;-90
2021/10/29 03:35:17;;;;;;;9.80;7.13;;;;;;;;;;5015472;28;20503;-91
2021/10/29 03:40:43;;;;;;;11.03;7.77;;;;;;;;;;4975934;28;20450;-92
2021/10/29 03:43:16;;;;;;;12.20;7.13;;;;;;;;;;5015862;28;20471;-89
2021/10/29 03:45:48;;;;;;;9.70;7.20;;;;;;;;;;5014110;28;20986;-90
2021/10/29 03:48:17;;;;;;;12.60;7.47;;;;;;;;;;5014967;28;21157;-90
2021/10/29 03:50:48;;;;;;;11.80;8.37;;;;;;;;;;5014143;28;20452;-90
2021/10/29 03:53:27;;;;;;;9.13;6.73;;;;;;;;;;5014368;28;20966;-91
2021/10/29 03:55:58;;;;;;;12.30;7.70;;;;;;;;;;5014620;28;20543;-91
2021/10/29 03:58:25;;;;;;;9.53;7.60;;;;;;;;;;5014102;28;20452;-95
2021/10/29 04:00:52;;;;;;;10.27;7.40;;;;;;;;;;5014604;28;20456;-92
2021/10/29 04:03:20;;;;;;;10.07;7.10;;;;;;;;;;5013849;28;20768;-91
2021/10/29 04:05:47;;;;;;;11.70;7.20;;;;;;;;;;5014688;28;20523;-91
2021/10/29 04:08:14;;;;;;;13.10;8.23;;;;;;;;;;5015119;28;20456;-92
2021/10/29 04:10:43;;;;;;;13.13;7.87;;;;;;;;;;5013636;28;20714;-90
2021/10/29 04:13:12;;;;;;;12.20;8.13;;;;;;;;;;5014545;28;20558;-91
2021/10/29 04:15:40;;;;;;;9.13;7.27;;;3.10;99.90;;;;;;5013773;28;20448;-89
2021/10/29 04:18:08;;;;;;;10.60;7.87;;;;;;;;;;5014434;28;20939;-92
2021/10/29 04:20:35;;;;;;;11.67;7.70;;;;;;;;;;5014441;28;20456;-92
2021/10/29 04:23:02;;;;;;;10.70;7.70;;;;;;;;;;5014125;28;20468;-90
2021/10/29 04:25:29;;;;;;;9.60;7.50;;;;;;;;;;5013381;28;20437;-92
2021/10/29 04:28:00;;;;;;;10.27;7.40;;;;;;;;;;5017518;28;20468;-89
2021/10/29 04:30:29;;;;;;;11.30;8.40;;;2.90;99.90;;;;;;5018845;28;20535;-91
2021/10/29 04:32:57;;;;;;;10.00;7.50;;;;;;;;;;5017381;28;20858;-90
2021/10/29 04:35:24;;;;;;;8.70;7.17;;;;;;;;;;5021765;28;20998;-92
2021/10/29 04:37:52;;;;;;;10.90;7.67;;;;;;;;;;5026117;28;20444;-90
2021/10/29 04:40:19;;;;;;;10.13;7.07;;;;;;;;;;5017654;28;20971;-89
2021/10/29 04:42:46;;;;;;;10.07;7.17;;;;;;;;;;5017228;28;20437;-90
2021/10/29 04:45:15;;;;;;;13.00;7.60;;;;;;;;;;5017843;28;21067;-90
2021/10/29 04:47:43;;;;;;;11.00;7.33;;;;;;;;;;5021453;28;20483;-91
2021/10/29 04:50:11;;;;;;;13.30;7.47;;;;;;;;;;5023789;28;20453;-90
2021/10/29 04:52:38;;;;;;;13.90;7.57;;;;;;;;;;5017203;28;20455;-90
2021/10/29 04:55:06;;;;;;;9.83;8.20;;;3.20;99.90;;;;;;5018260;28;20489;-90
2021/10/29 04:57:33;;;;;;;11.40;7.03;;;;;;;;;;5016382;28;20437;-91
2021/10/29 05:00:02;;;;;;;11.70;8.27;;;;;;;;;;5017313;28;20441;-93
2021/10/29 05:02:30;;;;;;;11.73;7.90;;;;;;;;;;5016586;28;20436;-93
2021/10/29 05:04:58;;;;;;;10.67;8.33;;;;;;;;;;5017086;28;20435;-93
2021/10/29 05:07:25;;;;;;;10.70;7.47;;;;;;;;;;5017581;28;20503;-93
2021/10/29 05:09:53;;;;;;;10.00;6.67;;;;;;;;;;5017422;28;20801;-90
2021/10/29 05:12:20;;;;;;;9.33;7.10;;;;;;;;;;5016844;28;20464;-90
2021/10/29 05:14:47;;;;;;;14.57;7.13;;;;;;;;;;5013192;28;20939;-91
2021/10/29 05:17:14;;;;;;;11.73;8.10;;;;;;;;;;5016913;28;20453;-89
2021/10/29 05:19:41;;;;;;;11.20;7.67;;;;;;;;;;5014948;28;20440;-89
2021/10/29 05:22:09;;;;;;;9.40;6.57;;;;;;;;;;5016513;28;20994;-94
2021/10/29 05:24:37;;;;;;;9.77;6.60;;;;;;;;;;5017018;28;20456;-93
2021/10/29 05:27:05;;;;;;;11.47;7.50;;;;;;;;;;5015725;28;20519;-91
2021/10/29 05:29:32;;;;;;;10.87;8.97;;;;;;;;;;5016615;28;20457;-94
2021/10/29 05:32:01;;;;;;;13.73;9.03;;;;;;;;;;5017563;28;20960;-93
2021/10/29 05:34:28;;;;;;;9.37;6.80;;;;;;;;;;5016281;28;20460;-91
2021/10/29 05:36:57;;;;;;;16.23;7.87;;;;;;;;;;5016470;28;20477;-90
2021/10/29 05:39:26;;;;;;;10.60;7.47;;;;;;;;;;5017349;28;20436;-90
2021/10/29 05:41:53;;;;;;;12.53;8.03;;;;;;;;;;5016390;28;20502;-91
2021/10/29 05:44:20;;;;;;;11.73;8.20;;;;;;;;;;5016215;28;21014;-89
2021/10/29 05:46:47;;;;;;;9.97;7.27;;;;;;;;;;5016193;28;20496;-89
2021/10/29 05:49:16;;;;;;;12.33;9.07;;;2.90;99.90;;;;;;5016713;28;20449;-92
2021/10/29 05:51:46;;;;;;;9.43;7.03;;;2.90;99.90;;;;;;5017192;28;20453;-91
2021/10/29 05:54:34;;;;;;;13.00;8.77;;;3.00;99.90;;;;;;5019729;28;20932;-93
2021/10/29 05:57:04;;;;;;;13.70;9.40;;;3.20;99.90;;;;;;5015176;28;20484;-91
2021/10/29 05:59:35;;;;;;;15.10;10.93;;;;;;;;;;5013705;28;20441;-91
2021/10/29 06:02:03;;;;;;;17.27;10.37;;;;;;;;;;5016178;28;20488;-90
2021/10/29 06:04:32;;;;;;;18.50;11.83;;;;;;;;;;5025535;28;20488;-91
2021/10/29 06:06:59;;;;;;;17.37;9.73;;;;;;;;;;5024566;28;20480;-91
2021/10/29 06:09:26;;;;;;;12.17;8.40;;;;;;;;;;5016372;28;20436;-92
2021/10/29 06:11:54;;;;;;;14.30;9.53;;;;;;;;;;5015505;28;20445;-90
2021/10/29 06:14:22;;;;;;;11.90;8.50;;;;;;;;;;5015155;28;20456;-92
2021/10/29 06:16:50;;;;;;;12.50;8.43;;;;;;;;;;5015497;28;20492;-94
2021/10/29 06:19:17;;;;;;;17.47;10.73;;;;;;;;;;5015557;28;20460;-91
2021/10/29 06:21:54;;;;;;;19.63;10.50;;;;;;;;;;5015766;28;20465;-91
2021/10/29 06:24:21;;;;;;;19.13;10.53;;;;;;;;;;5015684;28;20786;-89
2021/10/29 06:26:52;;;;;;;13.90;9.83;;;;;;;;;;5014689;28;20448;-90
2021/10/29 06:29:19;;;;;;;21.63;11.77;;;;;;;;;;5015677;28;20444;-91
2021/10/29 06:31:48;;;;;;;15.97;10.43;;;;;;;;;;5015558;28;20456;-93
2021/10/29 06:34:16;;;;;;;14.00;10.33;;;;;;;;;;5015887;28;20459;-93
2021/10/29 06:36:43;;;;;;;15.37;10.30;;;;;;;;;;5015325;28;20460;-91
2021/10/29 06:39:10;;;;;;;16.77;10.13;;;;;;;;;;5015349;28;20456;-92
2021/10/29 06:41:38;;;;;;;15.53;9.93;;;;;;;;;;5013227;28;20455;-92
2021/10/29 06:44:15;;;;;;;17.17;11.20;;;;;;;;;;5015849;28;20484;-91
2021/10/29 06:46:47;;;;;;;16.87;10.80;;;;;;;;;;5017715;28;20539;-90
2021/10/29 06:49:19;;;;;;;24.00;12.23;;;;;;;;;;5017672;28;20510;-91
2021/10/29 07:00:14;;;;;;;35.03;14.43;;;5.50;99.90;;;;;;5017175;28;20935;-91
2021/10/29 07:11:34;;;;;;;29.93;13.50;;;;;;;;;;5009310;28;20439;-93
2021/10/29 07:41:24;;;;;;;12.67;9.70;;;;;;;;;;4955559;29;20423;-91
2021/10/29 07:43:54;;;;;;;11.80;8.10;;;;;;;;;;4958994;28;20446;-93
2021/10/29 07:46:21;;;;;;;11.00;9.60;;;;;;;;;;4955910;29;20908;-94
2021/10/29 07:48:48;;;;;;;23.37;10.20;;;;;;;;;;4955462;28;20491;-89
2021/10/29 07:51:17;;;;;;;30.77;11.60;;;;;;;;;;4959154;28;20456;-92
2021/10/29 07:53:46;;;;;;;19.43;11.13;;;;;;;;;;4956029;28;20462;-91
2021/10/29 07:56:13;;;;;;;19.57;11.00;;;;;;;;;;4966766;28;20470;-90
2021/10/29 07:58:41;;;;;;;17.00;10.73;;;;;;;;;;4961767;28;20541;-91
2021/10/29 08:01:08;;;;;;;13.30;9.83;;;;;;;;;;4978610;28;20512;-93
2021/10/29 08:03:35;;;;;;;11.93;9.27;;;;;;;;;;4978535;28;20461;-90
2021/10/29 08:06:02;;;;;;;10.40;9.30;;;;;;;;;;4979010;28;20466;-92
2021/10/29 08:08:29;;;;;;;10.23;8.90;;;;;;;;;;4980149;28;20493;-90
2021/10/29 08:10:58;;;;;;;10.60;8.60;;;12.40;99.90;;;;;;4977976;28;20438;-94
2021/10/29 08:13:28;;;;;;;10.67;9.13;;;12.40;99.90;;;;;;4978474;28;20445;-90
2021/10/29 08:15:59;;;;;;;12.53;10.23;;;;;;;;;;4978997;28;20466;-91
2021/10/29 08:18:26;;;;;;;12.07;10.17;;;;;;;;;;4978744;28;20454;-89
2021/10/29 08:20:58;;;;;;;11.63;9.43;;;;;;;;;;4976019;28;21413;-90
2021/10/29 08:23:25;;;;;;;11.50;10.00;;;;;;;;;;4977302;28;20450;-90
2021/10/29 08:25:53;;;;;;;15.03;9.70;;;;;;;;;;4979936;28;20944;-94
2021/10/29 08:28:22;;;;;;;14.87;9.87;;;;;;;;;;4981858;28;20489;-92
2021/10/29 08:30:49;;;;;;;13.93;9.00;;;;;;;;;;4979011;28;20458;-89
2021/10/29 08:33:16;;;;;;;10.13;8.43;;;;;;;;;;4979383;28;20469;-94
2021/10/29 08:35:43;;;;;;;10.87;8.40;;;;;;;;;;4978287;28;20527;-90
2021/10/29 08:38:11;;;;;;;14.10;9.83;;;;;;;;;;4979283;28;20434;-93
2021/10/29 08:40:38;;;;;;;23.37;10.90;;;;;;;;;;4978963;28;20457;-89
2021/10/29 08:43:05;;;;;;;13.90;10.43;;;;;;;;;;4978168;28;20454;-89
2021/10/29 08:45:34;;;;;;;13.87;10.30;;;;;;;;;;4978616;28;20450;-90
2021/10/29 08:48:02;;;;;;;13.80;9.80;;;12.00;99.90;;;;;;4977840;28;20489;-90
2021/10/29 08:50:29;;;;;;;11.20;9.60;;;;;;;;;;4977969;28;20438;-90
2021/10/29 08:52:57;;;;;;;11.00;9.37;;;12.80;99.90;;;;;;4973864;28;20451;-90
2021/10/29 08:55:27;;;;;;;13.03;9.40;;;;;;;;;;4975619;28;20823;-91
2021/10/29 08:57:55;;;;;;;10.07;8.67;;;;;;;;;;4978833;28;20454;-90
2021/10/29 09:00:25;;;;;;;20.63;9.17;;;13.00;99.90;;;;;;4987881;28;20446;-91
2021/10/29 09:02:59;;;;;;;10.97;9.30;;;12.70;99.90;;;;;;4985137;28;20479;-88
2021/10/29 09:05:31;;;;;;;10.13;8.90;;;12.70;99.90;;;;;;4986891;28;20442;-92
2021/10/29 09:08:10;;;;;;;12.60;8.87;;;12.90;99.90;;;;;;4978043;28;20538;-90
2021/10/29 09:10:58;;;;;;;10.47;8.73;;;;;;;;;;4977328;28;20458;-88
2021/10/29 09:33:05;;;;;;;10.30;7.97;;;;;;;;;;4977392;28;20567;-88
2021/10/29 09:35:36;;;;;;;10.40;7.23;;;14.30;99.90;;;;;;4977197;28;20457;-89
2021/10/29 09:38:06;;;;;;;9.50;7.67;;;14.00;99.90;;;;;;4977346;28;20435;-87
2021/10/29 09:40:36;;;;;;;12.53;7.87;;;14.50;99.90;;;;;;4971130;28;20478;-91
2021/10/29 09:43:10;;;;;;;8.80;7.43;;;15.10;99.90;;;;;;4978437;28;20486;-91
2021/10/29 09:45:38;;;;;;;9.10;6.70;;;;;;;;;;4972706;28;20548;-91
2021/10/29 09:48:14;;;;;;;7.87;7.07;;;16.50;99.90;;;;;;4957060;28;20491;-90
2021/10/29 09:50:48;;;;;;;6.90;6.20;;;;;;;;;;4976352;28;21017;-90
2021/10/29 09:54:02;;;;;;;6.53;5.90;;;16.80;99.90;;;;;;4956973;28;20451;-90
2021/10/29 09:56:45;;;;;;;7.70;6.70;;;16.10;99.90;;;;;;4959727;28;20950;-94
2021/10/29 09:59:12;;;;;;;6.67;5.70;;;;;;;;;;4973493;28;20840;-90
2021/10/29 10:01:39;;;;;;;9.90;5.07;;;;;;;;;;4975910;28;20458;-89
2021/10/29 10:04:09;;;;;;;9.50;5.77;;;17.00;99.90;;;;;;4975601;28;20789;-91
2021/10/29 10:06:42;;;;;;;7.13;6.43;;;16.00;99.90;;;;;;4975948;28;20489;-93
2021/10/29 10:09:10;;;;;;;7.27;6.13;;;16.90;99.90;;;;;;4976156;28;20511;-92
2021/10/29 10:11:37;;;;;;;6.60;6.00;;;;;;;;;;4975301;28;20446;-90
2021/10/29 10:14:04;;;;;;;8.43;6.37;;;;;;;;;;4971473;28;20465;-92
2021/10/29 10:16:34;;;;;;;5.97;5.37;;;16.90;99.90;;;;;;4959921;28;20470;-95
2021/10/29 10:19:01;;;;;;;6.87;6.17;;;;;;;;;;4971589;28;20477;-94
2021/10/29 10:21:37;;;;;;;8.20;6.37;;;16.70;99.90;;;;;;4976043;28;20439;-90
2021/10/29 10:24:10;;;;;;;7.90;6.40;;;16.70;99.90;;;;;;4941594;28;20526;-91
2021/10/29 10:27:05;;;;;;;6.80;6.10;;;;;;;;;;4937365;29;20925;-94
2021/10/29 10:40:51;;;;;;;6.90;5.83;;;17.80;99.90;;;;;;4935700;29;20459;-87
2021/10/29 10:46:09;;;;;;;6.63;6.03;;;17.80;99.90;;;;;;4935051;29;20433;-89
2021/10/29 10:48:43;;;;;;;7.13;5.90;;;17.30;99.90;;;;;;4936962;29;21019;-88
2021/10/29 10:51:39;;;;;;;7.90;6.30;;;17.50;99.90;;;;;;4934582;28;20500;-89
2021/10/29 10:54:13;;;;;;;5.80;5.30;;;17.60;99.90;;;;;;4937080;29;20463;-94
2021/10/29 10:57:00;;;;;;;6.40;5.77;;;;;;;;;;4936539;29;20452;-88
2021/10/29 10:59:36;;;;;;;11.10;6.40;;;17.60;99.90;;;;;;4936847;29;20456;-88
2021/10/29 11:11:06;;;;;;;5.83;5.23;;;18.10;99.90;;;;;;4936786;29;20447;-92
2021/10/29 11:13:48;;;;;;;5.77;5.30;;;;;;;;;;4937942;29;20499;-91
2021/10/29 11:16:25;;;;;;;6.70;5.10;;;18.30;99.90;;;;;;4936185;29;20458;-93
2021/10/29 11:18:55;;;;;;;7.30;5.30;;;18.90;99.90;;;;;;4938041;29;20951;-91
2021/10/29 11:21:32;;;;;;;7.17;5.17;;;19.20;98.70;;;;;;4938414;29;21004;-90
2021/10/29 11:24:01;;;;;;;5.37;4.87;;;19.20;99.90;;;;;;4941484;29;20510;-93
2021/10/29 11:26:37;;;;;;;7.53;5.50;;;19.50;99.90;;;;;;4944052;29;20444;-94
2021/10/29 11:29:08;;;;;;;6.70;5.27;;;;;;;;;;4948403;28;20934;-92
2021/10/29 11:31:39;;;;;;;5.47;4.60;;;;;;;;;;4944995;29;20487;-90
2021/10/29 11:34:12;;;;;;;5.23;4.70;;;;;;;;;;4951485;29;20504;-93
2021/10/29 11:36:44;;;;;;;5.67;5.00;;;;;;;;;;4949062;29;20455;-93
2021/10/29 11:39:16;;;;;;;6.27;4.87;;;19.00;99.90;;;;;;4948741;29;20483;-91
2021/10/29 11:41:47;;;;;;;6.37;4.97;;;19.40;99.90;;;;;;4946420;29;20451;-89
2021/10/29 11:44:15;;;;;;;5.97;4.57;;;;;;;;;;4946308;28;20440;-93
2021/10/29 11:46:45;;;;;;;5.63;5.10;;;19.70;99.60;;;;;;4940957;29;20452;-95
2021/10/29 11:49:14;;;;;;;9.43;4.43;;;19.90;99.10;;;;;;4937710;29;20448;-91
2021/10/29 11:51:42;;;;;;;6.43;4.50;;;20.30;98.00;;;;;;4946361;29;20813;-94
2021/10/29 11:54:17;;;;;;;5.13;4.60;;;20.30;97.00;;;;;;4947186;29;20460;-92
2021/10/29 11:56:50;;;;;;;6.20;4.77;;;20.20;96.90;;;;;;4947283;29;20465;-90
2021/10/29 12:07:49;;;;;;;7.37;4.20;;;;;;;;;;4943978;29;20526;-90
2021/10/29 12:10:19;;;;;;;5.27;4.73;;;19.80;96.00;;;;;;4936653;29;20459;-89
2021/10/29 12:12:49;;;;;;;5.87;4.73;;;19.60;97.30;;;;;;4941158;29;20456;-88
2021/10/29 12:15:18;;;;;;;6.47;4.87;;;20.20;96.90;;;;;;4938654;29;20463;-89
2021/10/29 12:17:52;;;;;;;6.73;5.20;;;20.40;96.80;;;;;;4943480;29;20456;-90
2021/10/29 12:20:24;;;;;;;12.90;5.00;;;20.70;96.30;;;;;;4946312;29;20502;-89
2021/10/29 12:22:55;;;;;;;6.10;5.30;;;20.40;95.90;;;;;;4947109;29;20531;-89
2021/10/29 12:25:29;;;;;;;6.63;5.00;;;20.20;96.10;;;;;;4977900;23;20496;-89
2021/10/29 12:28:01;;;;;;;5.97;5.27;;;20.30;96.30;;;;;;4985072;28;20462;-89
2021/10/29 12:30:32;;;;;;;6.30;4.63;;;20.30;95.10;;;;;;4985304;28;20493;-89
2021/10/29 12:53:11;;;;;;;5.60;5.00;;;20.30;95.10;;;;;;4977731;28;20548;-91
2021/10/29 13:01:29;;;;;;;6.53;5.13;;;20.50;94.50;;;;;;4978088;28;21064;-89
2021/10/29 13:03:58;;;;;;;7.87;5.00;;;20.50;94.50;;;;;;4978220;28;20493;-90
2021/10/29 13:06:32;;;;;;;10.43;5.60;;;20.70;94.50;;;;;;4977317;28;20454;-89
2021/10/29 13:08:59;;;;;;;9.50;5.47;;;;;;;;;;4977831;28;20453;-89
2021/10/29 13:11:26;;;;;;;8.10;5.10;;;;;;;;;;4976454;28;20457;-91
2021/10/29 13:13:57;;;;;;;7.07;6.07;;;;;;;;;;4977320;28;20464;-89
2021/10/29 13:16:26;;;;;;;6.70;5.87;;;;;;;;;;4972696;28;20529;-88
2021/10/29 13:19:12;;;;;;;7.20;5.47;;;;;;;;;;4976853;28;20532;-89
2021/10/29 13:27:33;;;;;;;6.87;5.20;;;20.60;91.20;;;;;;4975864;28;20448;-95
2021/10/29 13:35:48;;;;;;;6.43;4.20;;;;;;;;;;4976198;28;20460;-88
2021/10/29 13:52:02;;;;;;;5.83;3.57;;;;;;;;;;4978067;28;20470;-91
2021/10/29 13:54:39;;;;;;;4.80;4.20;;;20.80;93.00;;;;;;4976945;28;20516;-90
2021/10/29 13:57:23;;;;;;;5.13;4.40;;;;;;;;;;4976020;28;20520;-89
2021/10/29 14:30:27;;;;;;;8.37;5.70;;;;;;;;;;4964457;28;20486;-88
2021/10/29 14:32:58;;;;;;;6.00;4.63;;;;;;;;;;4972971;28;20949;-89
2021/10/29 14:35:27;;;;;;;5.67;5.17;;;;;;;;;;4976383;28;20501;-91
2021/10/29 14:38:03;;;;;;;12.57;6.03;;;;;;;;;;4988352;28;20454;-91
2021/10/29 14:40:33;;;;;;;6.03;5.43;;;19.50;96.60;;;;;;4994210;28;20980;-88
2021/10/29 14:43:06;;;;;;;6.20;5.37;;;19.50;97.10;;;;;;4995610;28;20456;-91
2021/10/29 14:45:36;;;;;;;6.93;6.13;;;;;;;;;;4995110;28;20480;-93
2021/10/29 14:48:18;;;;;;;7.00;5.90;;;;;;;;;;4997132;28;20445;-91
2021/10/29 14:51:17;;;;;;;7.73;6.30;;;;;;;;;;5004960;28;20449;-89
2021/10/29 15:05:03;;;;;;;7.37;6.53;;;;;;;;;;4976132;28;20433;-89
2021/10/29 15:16:11;;;;;;;7.97;6.97;;;;;;;;;;4962645;29;20434;-93
2021/10/29 15:29:51;;;;;;;11.90;7.13;;;;;;;;;;4973572;28;20457;-88
2021/10/29 15:32:36;;;;;;;8.53;6.03;;;;;;;;;;4960446;28;20554;-89
2021/10/29 15:43:33;;;;;;;5.83;4.73;;;14.30;99.90;;;;;;4955848;29;20553;-88
2021/10/29 15:46:07;;;;;;;5.90;5.23;;;;;;;;;;4956440;28;20447;-91
2021/10/29 15:48:44;;;;;;;7.43;5.97;;;;;;;;;;4957706;28;20526;-90
2021/10/29 15:51:12;;;;;;;5.77;4.57;;;;;;;;;;4955873;29;20449;-91
2021/10/29 15:53:39;;;;;;;5.50;4.57;;;;;;;;;;4955024;28;20470;-90
2021/10/29 15:56:13;;;;;;;11.57;5.57;;;;;;;;;;4954654;28;20455;-89
2021/10/29 15:58:47;;;;;;;9.23;4.97;;;;;;;;;;4956582;28;20443;-90
2021/10/29 16:01:18;;;;;;;5.70;5.10;;;;;;;;;;4958905;28;20499;-91
2021/10/29 16:03:57;;;;;;;7.10;5.23;;;12.40;99.90;;;;;;4959984;28;20510;-88
2021/10/29 16:17:20;;;;;;;5.77;4.33;;;;;;;;;;4955711;29;20441;-88
2021/10/29 16:19:49;;;;;;;7.87;5.10;;;;;;;;;;4957627;28;20491;-89
2021/10/29 16:22:20;;;;;;;6.20;4.67;;;11.20;99.90;;;;;;4960648;28;20447;-88
2021/10/29 16:25:00;;;;;;;7.27;4.47;;;;;;;;;;4960972;28;20537;-90
2021/10/29 16:27:36;;;;;;;7.00;4.93;;;;;;;;;;4963658;28;20867;-93
2021/10/29 16:30:05;;;;;;;5.33;4.17;;;10.80;99.90;;;;;;4968245;28;20454;-87
2021/10/29 16:32:51;;;;;;;5.10;4.40;;;;;;;;;;4967202;28;20481;-90
2021/10/29 16:35:21;;;;;;;6.47;4.23;;;10.60;99.90;;;;;;5000768;23;20518;-88
2021/10/29 16:37:48;;;;;;;7.77;5.40;;;;;;;;;;5025043;28;20448;-89
2021/10/29 16:40:16;;;;;;;7.10;5.07;;;;;;;;;;5022512;28;20571;-87
2021/10/29 16:42:43;;;;;;;8.43;4.90;;;;;;;;;;5021689;28;20494;-87
2021/10/29 16:45:12;;;;;;;7.83;5.63;;;10.30;99.90;;;;;;5024256;28;20448;-88
2021/10/29 16:47:41;;;;;;;7.47;5.30;;;;;;;;;;5022595;28;20453;-88
2021/10/29 16:50:08;;;;;;;6.60;5.00;;;;;;;;;;5018981;28;20499;-87
2021/10/29 16:52:37;;;;;;;5.53;4.90;;;;;;;;;;5023776;28;20453;-87
2021/10/29 16:55:05;;;;;;;7.57;5.23;;;10.00;99.90;;;;;;5024276;28;20503;-88
2021/10/29 16:57:32;;;;;;;11.00;5.63;;;;;;;;;;5024903;28;20444;-87
2021/10/29 17:00:00;;;;;;;8.37;5.97;;;;;;;;;;5027934;28;20983;-88
2021/10/29 17:02:28;;;;;;;9.80;6.30;;;;;;;;;;5023432;28;20444;-90
2021/10/29 17:04:55;;;;;;;10.40;6.33;;;;;;;;;;5024527;28;20444;-89
2021/10/29 17:07:22;;;;;;;9.03;6.20;;;;;;;;;;5023912;28;20437;-88
2021/10/29 17:09:52;;;;;;;8.30;6.70;;;;;;;;;;5022511;28;20472;-88
2021/10/29 17:12:20;;;;;;;7.73;6.60;;;;;;;;;;5022576;28;20459;-90
2021/10/29 17:14:48;;;;;;;9.43;6.30;;;;;;;;;;5019813;28;20452;-89
2021/10/29 17:17:15;;;;;;;9.03;6.23;;;;;;;;;;5021389;28;20924;-89
2021/10/29 17:19:42;;;;;;;6.47;5.67;;;;;;;;;;5021760;28;20481;-89
2021/10/29 17:22:09;;;;;;;7.00;6.07;;;;;;;;;;5020393;28;20439;-89
2021/10/29 17:24:37;;;;;;;8.17;6.60;;;;;;;;;;5024984;28;20456;-89
2021/10/29 17:27:06;;;;;;;13.57;6.57;;;;;;;;;;5024856;28;20528;-90
2021/10/29 17:29:34;;;;;;;7.20;5.90;;;;;;;;;;5025276;28;20454;-88
2021/10/29 17:32:01;;;;;;;10.77;6.90;;;;;;;;;;5025509;28;20967;-89
2021/10/29 17:34:28;;;;;;;8.43;6.60;;;;;;;;;;5025952;28;20943;-91
2021/10/29 17:36:55;;;;;;;7.90;7.10;;;;;;;;;;5025662;28;20448;-90
2021/10/29 17:39:23;;;;;;;9.33;6.70;;;;;;;;;;5025059;28;20456;-90
2021/10/29 17:41:50;;;;;;;13.00;7.60;;;;;;;;;;5024987;28;20445;-90
2021/10/29 17:44:19;;;;;;;10.00;6.50;;;;;;;;;;5024595;28;20453;-89
2021/10/29 17:46:46;;;;;;;12.20;7.23;;;;;;;;;;5021764;28;20444;-90
2021/10/29 17:49:13;;;;;;;9.50;7.60;;;;;;;;;;5023446;28;20479;-88
2021/10/29 17:51:42;;;;;;;9.87;7.87;;;;;;;;;;5025951;28;20452;-89
2021/10/29 17:54:09;;;;;;;8.97;7.63;;;;;;;;;;5024286;28;20472;-89
2021/10/29 17:56:36;;;;;;;10.67;8.43;;;;;;;;;;5030255;28;20436;-88
2021/10/29 17:59:06;;;;;;;10.30;7.27;;;;;;;;;;5026717;28;20457;-89
2021/10/29 18:01:35;;;;;;;9.57;7.27;;;;;;;;;;5027273;28;20955;-89
2021/10/29 18:04:02;;;;;;;12.77;8.43;;;;;;;;;;5022563;28;20453;-90
2021/10/29 18:06:29;;;;;;;9.13;8.17;;;;;;;;;;5024973;28;20538;-90
2021/10/29 18:09:03;;;;;;;14.03;8.57;;;;;;;;;;5025536;28;20518;-88
2021/10/29 18:11:31;;;;;;;11.83;8.87;;;;;;;;;;5024659;28;20796;-90